createdAt,value
2022-09-11T00:01:01.427Z,97927.37
2022-09-11T00:03:30.169Z,97925.41
2022-09-11T00:05:57.266Z,97923.59
2022-09-11T00:08:24.367Z,97924.50
2022-09-11T00:10:51.394Z,97919.06
2022-09-11T00:13:22.000Z,97921.69
2022-09-11T00:15:51.051Z,97920.59
2022-09-11T00:18:23.852Z,97920.56
2022-09-11T00:20:53.340Z,97907.59
2022-09-11T00:23:22.380Z,97910.78
2022-09-11T00:25:49.841Z,97909.66
2022-09-11T00:28:19.945Z,97906.50
2022-09-11T00:30:48.651Z,97909.06
2022-09-11T00:33:16.003Z,97906.34
2022-09-11T00:35:43.075Z,97906.31
2022-09-11T00:38:13.106Z,97903.84
2022-09-11T00:40:47.045Z,97901.00
2022-09-11T00:43:17.830Z,97904.13
2022-09-11T00:45:46.354Z,97902.56
2022-09-11T00:48:16.161Z,97899.69
2022-09-11T00:50:44.174Z,97890.63
2022-09-11T00:53:12.193Z,97888.66
2022-09-11T00:55:42.173Z,97878.19
2022-09-11T00:58:14.836Z,97887.44
2022-09-11T01:00:43.840Z,97872.56
2022-09-11T01:03:11.081Z,97877.09
2022-09-11T01:05:41.312Z,97874.25
2022-09-11T01:08:08.638Z,97875.78
2022-09-11T01:10:56.620Z,97876.13
2022-09-11T01:13:29.418Z,97867.59
2022-09-11T01:16:25.376Z,97869.63
2022-09-11T01:19:12.548Z,97881.38
2022-09-11T01:21:52.560Z,97886.12
2022-09-11T01:24:43.597Z,97887.28
2022-09-11T01:27:32.161Z,97881.34
2022-09-11T01:30:07.212Z,97878.94
2022-09-11T01:33:03.416Z,97880.97
2022-09-11T01:35:44.845Z,97880.97
2022-09-11T01:38:31.852Z,97877.62
2022-09-11T01:41:08.691Z,97884.47
2022-09-11T01:43:51.513Z,97893.16
2022-09-11T01:46:24.699Z,97884.06
2022-09-11T01:48:58.563Z,97886.38
2022-09-11T01:51:29.591Z,97881.91
2022-09-11T01:53:59.440Z,97890.72
2022-09-11T01:56:38.192Z,97884.69
2022-09-11T01:59:09.947Z,97883.97
2022-09-11T02:01:39.273Z,97886.53
2022-09-11T02:04:25.572Z,97879.72
2022-09-11T02:07:02.423Z,97887.03
2022-09-11T02:09:35.064Z,97887.31
2022-09-11T02:12:04.448Z,97881.25
2022-09-11T02:14:40.803Z,97878.31
2022-09-11T02:17:16.216Z,97881.56
2022-09-11T02:19:43.921Z,97884.25
2022-09-11T02:22:10.843Z,97873.47
2022-09-11T02:24:37.926Z,97870.28
2022-09-11T02:27:07.858Z,97871.59
2022-09-11T02:29:34.780Z,97872.00
2022-09-11T02:32:03.838Z,97870.56
2022-09-11T02:34:35.055Z,97875.72
2022-09-11T02:37:26.590Z,97879.16
2022-09-11T02:40:15.289Z,97871.19
2022-09-11T02:42:48.704Z,97880.78
2022-09-11T02:45:24.349Z,97875.19
2022-09-11T02:48:02.553Z,97872.69
2022-09-11T02:50:40.063Z,97874.03
2022-09-11T02:53:24.647Z,97869.47
2022-09-11T02:56:13.311Z,97874.50
2022-09-11T02:58:44.887Z,97876.78
2022-09-11T03:01:12.124Z,97876.38
2022-09-11T03:03:40.448Z,97876.44
2022-09-11T03:06:10.738Z,97884.97
2022-09-11T03:08:37.644Z,97880.25
2022-09-11T03:11:04.603Z,97887.25
2022-09-11T03:13:31.442Z,97882.84
2022-09-11T03:16:01.285Z,97881.19
2022-09-11T03:18:28.156Z,97880.88
2022-09-11T03:20:55.012Z,97881.94
2022-09-11T03:23:21.868Z,97884.22
2022-09-11T03:25:48.764Z,97889.87
2022-09-11T03:28:15.606Z,97887.97
2022-09-11T03:30:42.561Z,97892.50
2022-09-11T03:33:09.669Z,97888.31
2022-09-11T03:35:36.499Z,97885.81
2022-09-11T03:38:03.399Z,97890.00
2022-09-11T03:40:30.378Z,97893.06
2022-09-11T03:42:57.222Z,97882.53
2022-09-11T03:45:24.172Z,97885.88
2022-09-11T03:47:51.119Z,97890.03
2022-09-11T03:50:18.050Z,97896.38
2022-09-11T03:52:44.931Z,97896.25
2022-09-11T03:55:12.112Z,97891.38
2022-09-11T03:57:41.653Z,97893.94
2022-09-11T04:00:10.188Z,97885.41
2022-09-11T04:02:37.039Z,97886.06
2022-09-11T04:05:04.650Z,97885.06
2022-09-11T04:07:31.662Z,97885.34
2022-09-11T04:09:58.765Z,97881.94
2022-09-11T04:12:25.944Z,97872.78
2022-09-11T04:14:52.838Z,97877.66
2022-09-11T04:17:19.731Z,97878.22
2022-09-11T04:19:46.576Z,97877.66
2022-09-11T04:22:13.443Z,97875.63
2022-09-11T04:24:40.448Z,97876.84
2022-09-11T04:27:07.329Z,97872.75
2022-09-11T04:29:34.432Z,97882.22
2022-09-11T04:32:01.567Z,97880.81
2022-09-11T04:34:28.434Z,97884.19
2022-09-11T04:36:56.325Z,97892.22
2022-09-11T04:39:23.411Z,97895.13
2022-09-11T04:41:50.319Z,97897.25
2022-09-11T04:44:17.210Z,97893.19
2022-09-11T04:46:44.368Z,97890.31
2022-09-11T04:49:11.814Z,97891.41
2022-09-11T04:51:39.562Z,97887.63
2022-09-11T04:54:07.069Z,97887.91
2022-09-11T04:56:38.060Z,97894.06
2022-09-11T04:59:09.717Z,97889.50
2022-09-11T05:01:36.540Z,97893.09
2022-09-11T05:04:03.481Z,97892.75
2022-09-11T05:06:30.945Z,97896.28
2022-09-11T05:09:04.794Z,97894.59
2022-09-11T05:11:31.630Z,97900.34
2022-09-11T05:14:01.320Z,97906.47
2022-09-11T05:16:30.468Z,97912.72
2022-09-11T05:18:57.826Z,97920.91
2022-09-11T05:21:26.670Z,97920.47
2022-09-11T05:23:55.638Z,97918.06
2022-09-11T05:26:24.612Z,97920.72
2022-09-11T05:28:55.567Z,97923.13
2022-09-11T05:31:23.216Z,97923.06
2022-09-11T05:33:50.143Z,97928.00
2022-09-11T05:36:17.047Z,97923.66
2022-09-11T05:38:44.477Z,97924.69
2022-09-11T05:41:13.103Z,97924.59
2022-09-11T05:43:41.263Z,97914.63
2022-09-11T05:46:11.804Z,97921.22
2022-09-11T05:48:38.911Z,97924.44
2022-09-11T05:51:21.681Z,97915.38
2022-09-11T05:53:52.333Z,97922.66
2022-09-11T05:56:20.935Z,97915.44
2022-09-11T05:58:49.107Z,97922.44
2022-09-11T06:01:18.641Z,97912.75
2022-09-11T06:03:47.651Z,97923.06
2022-09-11T06:06:14.485Z,97915.81
2022-09-11T06:08:44.840Z,97912.06
2022-09-11T06:11:13.893Z,97919.38
2022-09-11T06:13:46.562Z,97922.06
2022-09-11T06:16:23.890Z,97918.13
2022-09-11T06:18:51.952Z,97923.25
2022-09-11T06:21:21.363Z,97925.38
2022-09-11T06:23:49.798Z,97919.81
2022-09-11T06:26:19.039Z,97928.53
2022-09-11T06:28:47.576Z,97922.53
2022-09-11T06:31:19.434Z,97920.72
2022-09-11T06:33:47.355Z,97927.59
2022-09-11T06:36:18.090Z,97929.50
2022-09-11T06:38:45.237Z,97931.00
2022-09-11T06:41:15.581Z,97923.34
2022-09-11T06:43:43.268Z,97922.56
2022-09-11T06:46:15.317Z,97925.56
2022-09-11T06:48:43.908Z,97920.72
2022-09-11T06:51:13.095Z,97922.41
2022-09-11T06:53:41.303Z,97927.03
2022-09-11T06:56:11.718Z,97918.13
2022-09-11T06:58:40.116Z,97923.88
2022-09-11T07:01:15.150Z,97919.56
2022-09-11T07:03:46.565Z,97929.69
2022-09-11T07:06:14.697Z,97920.66
2022-09-11T07:08:42.068Z,97924.94
2022-09-11T07:11:11.556Z,97930.97
2022-09-11T07:13:39.491Z,97926.59
2022-09-11T07:16:08.332Z,97931.41
2022-09-11T07:18:36.502Z,97922.63
2022-09-11T07:21:14.039Z,97932.19
2022-09-11T07:23:42.390Z,97935.78
2022-09-11T07:26:12.905Z,97922.03
2022-09-11T07:28:40.343Z,97927.31
2022-09-11T07:31:21.963Z,97923.97
2022-09-11T07:33:49.863Z,97934.09
2022-09-11T07:36:22.086Z,97924.94
2022-09-11T07:38:50.121Z,97922.53
2022-09-11T07:41:18.324Z,97903.59
2022-09-11T07:43:50.885Z,97919.56
2022-09-11T07:46:17.812Z,97911.59
2022-09-11T07:48:44.995Z,97909.66
2022-09-11T07:51:13.893Z,97924.53
2022-09-11T07:53:43.197Z,97919.28
2022-09-11T07:56:19.086Z,97919.28
2022-09-11T07:58:46.364Z,97921.41
2022-09-11T08:01:15.964Z,97919.94
2022-09-11T08:03:43.304Z,97929.31
2022-09-11T08:06:14.781Z,97931.22
2022-09-11T08:08:43.655Z,97929.50
2022-09-11T08:11:12.994Z,97928.22
2022-09-11T08:13:40.615Z,97926.38
2022-09-11T08:16:08.148Z,97932.28
2022-09-11T08:18:35.778Z,97936.31
2022-09-11T08:21:04.712Z,97921.94
2022-09-11T08:23:32.469Z,97938.47
2022-09-11T08:26:21.902Z,97929.63
2022-09-11T08:28:50.611Z,97939.25
2022-09-11T08:31:20.206Z,97940.59
2022-09-11T08:33:48.307Z,97934.53
2022-09-11T08:36:15.488Z,97942.72
2022-09-11T08:38:43.838Z,97935.84
2022-09-11T08:41:50.064Z,97939.53
2022-09-11T08:44:19.619Z,97950.28
2022-09-11T08:46:49.683Z,97941.28
2022-09-11T08:49:19.818Z,97954.19
2022-09-11T08:51:49.030Z,97951.31
2022-09-11T08:54:27.321Z,97947.91
2022-09-11T08:57:20.734Z,97948.00
2022-09-11T09:00:12.261Z,97950.22
2022-09-11T09:02:57.800Z,97950.13
2022-09-11T09:05:50.341Z,97943.41
2022-09-11T09:08:20.260Z,97944.00
2022-09-11T09:10:53.232Z,97940.53
2022-09-11T09:13:32.976Z,97945.09
2022-09-11T09:16:02.855Z,97939.22
2022-09-11T09:18:34.345Z,97926.00
2022-09-11T09:21:10.421Z,97930.59
2022-09-11T09:24:03.997Z,97936.72
2022-09-11T09:26:38.433Z,97933.56
2022-09-11T09:29:10.727Z,97930.50
2022-09-11T09:31:39.233Z,97930.34
2022-09-11T09:34:19.966Z,97938.94
2022-09-11T09:36:52.213Z,97941.94
2022-09-11T09:39:19.945Z,97933.75
2022-09-11T09:41:52.763Z,97939.09
2022-09-11T09:44:38.438Z,97935.63
2022-09-11T09:47:08.827Z,97936.41
2022-09-11T09:49:37.624Z,97934.81
2022-09-11T09:52:19.608Z,97940.75
2022-09-11T09:55:01.882Z,97934.16
2022-09-11T09:57:36.926Z,97937.81
2022-09-11T10:00:14.854Z,97942.78
2022-09-11T10:02:54.936Z,97942.47
2022-09-11T10:05:33.426Z,97947.12
2022-09-11T10:08:05.950Z,97938.16
2022-09-11T10:10:36.550Z,97943.59
2022-09-11T10:13:19.901Z,97938.19
2022-09-11T10:15:50.025Z,97934.91
2022-09-11T10:18:29.859Z,97931.34
2022-09-11T10:21:12.190Z,97929.56
2022-09-11T10:23:48.450Z,97933.53
2022-09-11T10:26:39.886Z,97927.44
2022-09-11T10:29:16.216Z,97924.75
2022-09-11T10:31:49.994Z,97920.16
2022-09-11T10:34:20.337Z,97912.19
2022-09-11T10:37:00.908Z,97919.59
2022-09-11T10:39:30.620Z,97921.25
2022-09-11T10:41:59.934Z,97914.81
2022-09-11T10:44:30.880Z,97919.47
2022-09-11T10:47:17.971Z,97922.25
2022-09-11T10:49:45.781Z,97920.13
2022-09-11T10:52:12.592Z,97908.66
2022-09-11T10:54:48.447Z,97913.81
2022-09-11T10:57:33.699Z,97908.56
2022-09-11T11:00:23.003Z,97917.94
2022-09-11T11:02:59.683Z,97898.44
2022-09-11T11:05:45.196Z,97905.06
2022-09-11T11:08:33.872Z,97906.72
2022-09-11T11:11:25.604Z,97911.13
2022-09-11T11:13:58.162Z,97905.06
2022-09-11T11:16:44.251Z,97910.88
2022-09-11T11:19:41.133Z,97916.16
2022-09-11T11:22:21.345Z,97908.38
2022-09-11T11:25:06.081Z,97913.78
2022-09-11T11:27:59.469Z,97914.47
2022-09-11T11:31:05.850Z,97916.00
2022-09-11T11:34:03.544Z,97914.53
2022-09-11T11:37:11.896Z,97915.34
2022-09-11T11:39:43.734Z,97921.88
2022-09-11T11:42:17.919Z,97927.47
2022-09-11T11:44:51.865Z,97914.38
2022-09-11T11:47:25.544Z,97919.31
2022-09-11T11:50:08.897Z,97923.66
2022-09-11T11:52:43.552Z,97907.72
2022-09-11T11:55:20.858Z,97921.69
2022-09-11T11:57:55.688Z,97921.31
2022-09-11T12:00:22.682Z,97917.34
2022-09-11T12:02:56.869Z,97919.03
2022-09-11T12:05:26.965Z,97929.41
2022-09-11T12:07:53.930Z,97923.41
2022-09-11T12:10:29.579Z,97913.06
2022-09-11T12:13:00.048Z,97922.31
2022-09-11T12:15:32.368Z,97917.22
2022-09-11T12:18:07.497Z,97916.03
2022-09-11T12:20:42.183Z,97908.06
2022-09-11T12:23:32.050Z,97900.97
2022-09-11T12:26:16.995Z,97895.69
2022-09-11T12:28:44.024Z,97886.03
2022-09-11T12:31:16.188Z,97888.56
2022-09-11T12:33:47.480Z,97885.38
2022-09-11T12:36:17.135Z,97868.69
2022-09-11T12:38:50.384Z,97873.78
2022-09-11T12:41:34.516Z,97863.59
2022-09-11T12:44:03.232Z,97865.84
2022-09-11T12:46:30.035Z,97864.06
2022-09-11T12:49:21.448Z,97849.38
2022-09-11T12:51:55.253Z,97852.34
2022-09-11T12:54:28.332Z,97862.28
2022-09-11T12:57:07.106Z,97851.66
2022-09-11T12:59:38.720Z,97844.44
2022-09-11T13:02:20.524Z,97868.22
2022-09-11T13:04:48.842Z,97861.75
2022-09-11T13:07:43.309Z,97857.63
2022-09-11T13:10:30.555Z,97855.81
2022-09-11T13:12:58.841Z,97857.94
2022-09-11T13:15:41.229Z,97855.69
2022-09-11T13:18:31.205Z,97848.56
2022-09-11T13:21:26.381Z,97847.91
2022-09-11T13:23:53.644Z,97852.81
2022-09-11T13:26:25.845Z,97848.88
2022-09-11T13:28:55.474Z,97845.41
2022-09-11T13:31:42.518Z,97835.69
2022-09-11T13:34:14.441Z,97824.91
2022-09-11T13:36:41.314Z,97841.88
2022-09-11T13:39:08.952Z,97837.97
2022-09-11T13:41:38.919Z,97842.50
2022-09-11T13:44:11.551Z,97850.16
2022-09-11T13:46:50.491Z,97849.19
2022-09-11T13:49:36.242Z,97850.63
2022-09-11T13:52:06.917Z,97835.00
2022-09-11T13:54:38.427Z,97841.12
2022-09-11T13:57:13.299Z,97833.03
2022-09-11T13:59:52.106Z,97843.44
2022-09-11T14:02:44.566Z,97830.22
2022-09-11T14:05:11.496Z,97835.38
2022-09-11T14:08:07.431Z,97844.06
2022-09-11T14:10:44.562Z,97836.84
2022-09-11T14:13:35.513Z,97835.59
2022-09-11T14:16:08.772Z,97835.06
2022-09-11T14:19:00.439Z,97831.66
2022-09-11T14:21:38.845Z,97837.00
2022-09-11T14:24:34.291Z,97835.22
2022-09-11T14:27:02.499Z,97839.09
2022-09-11T14:29:31.712Z,97831.66
2022-09-11T14:32:33.991Z,97827.88
2022-09-11T14:35:01.469Z,97821.69
2022-09-11T14:37:30.294Z,97823.09
2022-09-11T14:40:03.250Z,97817.25
2022-09-11T14:42:32.882Z,97813.94
2022-09-11T14:45:00.142Z,97815.53
2022-09-11T14:47:28.942Z,97818.31
2022-09-11T14:49:57.671Z,97823.28
2022-09-11T14:52:27.086Z,97822.75
2022-09-11T14:54:54.348Z,97814.53
2022-09-11T14:57:26.031Z,97826.31
2022-09-11T14:59:53.191Z,97824.19
2022-09-11T15:02:22.375Z,97820.84
2022-09-11T15:04:50.316Z,97828.81
2022-09-11T15:07:18.993Z,97825.72
2022-09-11T15:09:46.724Z,97825.19
2022-09-11T15:12:14.577Z,97814.41
2022-09-11T15:14:58.833Z,97816.03
2022-09-11T15:17:28.795Z,97809.12
2022-09-11T15:19:55.663Z,97818.34
2022-09-11T15:22:22.530Z,97825.81
2022-09-11T15:24:49.974Z,97824.78
2022-09-11T15:27:19.322Z,97823.41
2022-09-11T15:29:46.550Z,97817.34
2022-09-11T15:32:14.592Z,97817.72
2022-09-11T15:34:43.672Z,97820.34
2022-09-11T15:37:11.055Z,97833.16
2022-09-11T15:39:37.975Z,97832.19
2022-09-11T15:42:06.400Z,97835.53
2022-09-11T15:44:35.227Z,97827.84
2022-09-11T15:47:04.294Z,97820.97
2022-09-11T15:49:31.920Z,97830.69
2022-09-11T15:51:59.849Z,97823.53
2022-09-11T15:54:27.461Z,97831.03
2022-09-11T15:56:55.241Z,97836.44
2022-09-11T15:59:22.520Z,97843.78
2022-09-11T16:01:49.762Z,97839.34
2022-09-11T16:04:19.436Z,97841.75
2022-09-11T16:06:48.534Z,97841.91
2022-09-11T16:09:27.158Z,97845.16
2022-09-11T16:11:54.866Z,97842.00
2022-09-11T16:14:24.433Z,97842.41
2022-09-11T16:16:51.876Z,97846.78
2022-09-11T16:19:21.704Z,97841.88
2022-09-11T16:21:49.401Z,97842.03
2022-09-11T16:24:16.871Z,97850.94
2022-09-11T16:26:44.516Z,97847.41
2022-09-11T16:29:12.948Z,97853.47
2022-09-11T16:31:40.323Z,97850.44
2022-09-11T16:34:07.963Z,97857.31
2022-09-11T16:36:42.014Z,97859.19
2022-09-11T16:39:13.682Z,97852.88
2022-09-11T16:41:40.616Z,97861.47
2022-09-11T16:44:09.072Z,97850.34
2022-09-11T16:46:37.329Z,97854.94
2022-09-11T16:49:06.311Z,97850.22
2022-09-11T16:51:34.375Z,97853.69
2022-09-11T16:54:02.236Z,97851.13
2022-09-11T16:56:29.090Z,97857.47
2022-09-11T16:58:55.992Z,97851.13
2022-09-11T17:01:24.705Z,97859.59
2022-09-11T17:03:54.808Z,97864.72
2022-09-11T17:06:23.771Z,97865.97
2022-09-11T17:08:51.363Z,97870.00
2022-09-11T17:11:20.902Z,97870.62
2022-09-11T17:13:48.583Z,97868.75
2022-09-11T17:16:21.095Z,97870.53
2022-09-11T17:18:49.343Z,97874.75
2022-09-11T17:21:16.594Z,97874.50
2022-09-11T17:23:43.803Z,97883.78
2022-09-11T17:26:12.962Z,97884.00
2022-09-11T17:28:40.753Z,97877.09
2022-09-11T17:31:09.873Z,97881.09
2022-09-11T17:33:38.663Z,97882.75
2022-09-11T17:36:06.692Z,97887.72
2022-09-11T17:38:34.140Z,97888.88
2022-09-11T17:41:04.281Z,97883.19
2022-09-11T17:43:32.738Z,97904.34
2022-09-11T17:46:13.157Z,97908.47
2022-09-11T17:48:40.333Z,97912.16
2022-09-11T17:51:12.963Z,97913.34
2022-09-11T17:53:41.660Z,97912.16
2022-09-11T17:56:11.712Z,97910.13
2022-09-11T17:58:38.732Z,97920.37
2022-09-11T18:01:06.365Z,97923.13
2022-09-11T18:03:34.316Z,97933.44
2022-09-11T18:06:02.770Z,97925.12
2022-09-11T18:08:31.409Z,97928.28
2022-09-11T18:11:02.160Z,97935.94
2022-09-11T18:13:31.808Z,97935.78
2022-09-11T18:15:58.760Z,97928.31
2022-09-11T18:18:25.759Z,97925.12
2022-09-11T18:20:56.112Z,97932.62
2022-09-11T18:23:23.788Z,97922.63
2022-09-11T18:25:51.805Z,97920.41
2022-09-11T18:28:20.149Z,97912.84
2022-09-11T18:30:47.567Z,97917.12
2022-09-11T18:33:16.827Z,97916.22
2022-09-11T18:35:45.828Z,97914.16
2022-09-11T18:38:13.029Z,97915.59
2022-09-11T18:40:39.999Z,97908.78
2022-09-11T18:43:08.970Z,97908.06
2022-09-11T18:45:36.561Z,97909.81
2022-09-11T18:48:04.915Z,97916.69
2022-09-11T18:50:31.838Z,97915.81
2022-09-11T18:53:00.171Z,97920.84
2022-09-11T18:55:29.008Z,97925.56
2022-09-11T18:57:56.395Z,97926.50
2022-09-11T19:00:23.288Z,97916.78
2022-09-11T19:02:53.113Z,97932.88
2022-09-11T19:05:20.404Z,97925.88
2022-09-11T19:07:48.290Z,97929.00
2022-09-11T19:10:15.218Z,97931.12
2022-09-11T19:12:42.083Z,97939.28
2022-09-11T19:15:09.672Z,97934.59
2022-09-11T19:17:38.219Z,97939.19
2022-09-11T19:20:07.851Z,97938.78
2022-09-11T19:22:35.069Z,97945.03
2022-09-11T19:25:02.112Z,97948.63
2022-09-11T19:27:31.836Z,97956.00
2022-09-11T19:29:59.945Z,97942.16
2022-09-11T19:32:28.222Z,97956.28
2022-09-11T19:34:55.319Z,97954.03
2022-09-11T19:37:22.333Z,97953.91
2022-09-11T19:39:50.987Z,97950.50
2022-09-11T19:42:18.339Z,97950.31
2022-09-11T19:44:45.671Z,97953.06
2022-09-11T19:47:12.655Z,97958.87
2022-09-11T19:49:39.592Z,97962.09
2022-09-11T19:52:08.218Z,97953.47
2022-09-11T19:54:35.602Z,97960.41
2022-09-11T19:57:02.702Z,97964.41
2022-09-11T19:59:29.546Z,97971.56
2022-09-11T20:01:56.541Z,97966.91
2022-09-11T20:04:24.065Z,97975.63
2022-09-11T20:09:31.021Z,97971.13
2022-09-11T20:12:00.524Z,97984.34
2022-09-11T20:14:28.314Z,97973.25
2022-09-11T20:16:55.202Z,97972.06
2022-09-11T20:19:22.096Z,97972.87
2022-09-11T20:21:49.403Z,97980.59
2022-09-11T20:24:16.272Z,97972.06
2022-09-11T20:26:43.375Z,97968.81
2022-09-11T20:29:13.599Z,97968.53
2022-09-11T20:31:47.040Z,97967.41
2022-09-11T20:34:17.906Z,97969.34
2022-09-11T20:36:44.916Z,97966.97
2022-09-11T20:39:13.830Z,97967.66
2022-09-11T20:41:40.935Z,97970.59
2022-09-11T20:44:07.819Z,97966.53
2022-09-11T20:46:34.799Z,97969.72
2022-09-11T20:49:03.159Z,97964.16
2022-09-11T20:51:30.480Z,97965.34
2022-09-11T20:53:57.425Z,97963.31
2022-09-11T20:56:24.423Z,97962.97
2022-09-11T20:58:52.133Z,97962.00
2022-09-11T21:01:21.604Z,97969.72
2022-09-11T21:03:53.854Z,97972.78
2022-09-11T21:06:25.652Z,97977.88
2022-09-11T21:09:00.677Z,97973.06
2022-09-11T21:11:28.862Z,97984.81
2022-09-11T21:13:56.131Z,97982.25
2022-09-11T21:16:23.294Z,97988.09
2022-09-11T21:18:53.193Z,97993.59
2022-09-11T21:21:21.218Z,98001.88
2022-09-11T21:23:48.398Z,97991.56
2022-09-11T21:26:17.002Z,97988.47
2022-09-11T21:28:44.482Z,97997.25
2022-09-11T21:31:11.662Z,97993.91
2022-09-11T21:33:38.626Z,97995.09
2022-09-11T21:36:06.879Z,97994.91
2022-09-11T21:38:33.748Z,98001.69
2022-09-11T21:41:02.393Z,98001.56
2022-09-11T21:43:29.359Z,97998.34
2022-09-11T21:45:56.614Z,98003.56
2022-09-11T21:48:23.786Z,98005.78
2022-09-11T21:50:50.672Z,98009.16
2022-09-11T21:53:17.704Z,98009.00
2022-09-11T21:55:46.073Z,98008.81
2022-09-11T21:58:18.772Z,98010.34
2022-09-11T22:00:48.185Z,98013.81
2022-09-11T22:03:17.271Z,98010.88
2022-09-11T22:05:45.229Z,98009.41
2022-09-11T22:08:14.815Z,98012.88
2022-09-11T22:10:45.342Z,98010.63
2022-09-11T22:13:12.326Z,98016.31
2022-09-11T22:15:40.905Z,98011.91
2022-09-11T22:18:08.267Z,98011.56
2022-09-11T22:20:37.223Z,98009.22
2022-09-11T22:23:04.179Z,98007.25
2022-09-11T22:25:31.168Z,98005.53
2022-09-11T22:27:58.062Z,98008.47
2022-09-11T22:30:24.941Z,98010.00
2022-09-11T22:32:51.775Z,98020.72
2022-09-11T22:35:18.881Z,98011.78
2022-09-11T22:37:45.903Z,98016.75
2022-09-11T22:40:12.821Z,98020.97
2022-09-11T22:42:40.282Z,98019.28
2022-09-11T22:45:08.123Z,98017.84
2022-09-11T22:47:35.651Z,98018.47
2022-09-11T22:50:02.589Z,98024.09
2022-09-11T22:52:30.161Z,98027.72
2022-09-11T22:54:57.063Z,98014.38
2022-09-11T22:57:25.937Z,98022.84
2022-09-11T22:59:56.243Z,98025.81
2022-09-11T23:02:23.174Z,98028.53
2022-09-11T23:05:08.519Z,98027.84
2022-09-11T23:07:35.373Z,98022.03
2022-09-11T23:10:02.403Z,98026.78
2022-09-11T23:12:29.264Z,98026.06
2022-09-11T23:14:56.994Z,98035.53
2022-09-11T23:17:23.840Z,98037.25
2022-09-11T23:19:50.688Z,98036.25
2022-09-11T23:22:17.543Z,98030.97
2022-09-11T23:24:44.403Z,98037.38
2022-09-11T23:27:11.267Z,98036.16
2022-09-11T23:29:38.122Z,98039.44
2022-09-11T23:32:05.134Z,98040.91
2022-09-11T23:34:32.072Z,98033.66
2022-09-11T23:36:58.918Z,98038.91
2022-09-11T23:39:25.813Z,98043.88
2022-09-11T23:41:52.791Z,98045.47
2022-09-11T23:44:19.699Z,98047.94
2022-09-11T23:46:46.576Z,98047.16
2022-09-11T23:49:13.502Z,98048.16
2022-09-11T23:51:41.633Z,98044.66
2022-09-11T23:54:08.654Z,98042.84
2022-09-11T23:56:35.501Z,98039.38
2022-09-11T23:59:02.396Z,98042.81
